createdAt,value
2022-09-29T00:01:09.597Z,4.93
2022-09-29T00:03:54.950Z,2.25
2022-09-29T00:06:40.276Z,2.60
2022-09-29T00:09:25.499Z,2.83
2022-09-29T00:12:10.774Z,7.82
2022-09-29T00:14:56.150Z,6.15
2022-09-29T00:17:49.748Z,3.63
2022-09-29T00:20:57.087Z,6.82
2022-09-29T00:23:43.063Z,2.92
2022-09-29T00:26:28.452Z,4.53
2022-09-29T00:29:14.071Z,6.47
2022-09-29T00:31:59.851Z,4.80
2022-09-29T00:34:45.167Z,3.17
2022-09-29T00:37:31.024Z,7.45
2022-09-29T00:40:16.468Z,2.95
2022-09-29T00:43:02.047Z,3.22
2022-09-29T00:45:48.686Z,10.07
2022-09-29T00:48:34.297Z,6.60
2022-09-29T00:51:21.063Z,5.63
2022-09-29T00:54:07.950Z,3.13
2022-09-29T00:56:53.283Z,3.35
2022-09-29T00:59:51.371Z,3.72
2022-09-29T01:02:40.378Z,9.73
2022-09-29T01:05:38.562Z,3.97
2022-09-29T01:08:27.039Z,9.45
2022-09-29T01:11:13.813Z,7.13
2022-09-29T01:14:05.166Z,3.75
2022-09-29T01:16:50.495Z,4.68
2022-09-29T01:19:50.990Z,5.35
2022-09-29T01:23:11.000Z,6.00
2022-09-29T01:26:12.215Z,2.90
2022-09-29T01:29:26.782Z,3.58
2022-09-29T01:32:25.201Z,7.47
2022-09-29T01:35:43.122Z,2.47
2022-09-29T01:38:40.696Z,3.35
2022-09-29T01:42:11.992Z,5.18
2022-09-29T01:45:12.775Z,3.72
2022-09-29T01:48:03.135Z,2.90
2022-09-29T01:50:56.455Z,4.47
2022-09-29T01:53:47.979Z,2.15
2022-09-29T01:56:42.236Z,3.47
2022-09-29T02:00:11.539Z,4.50
2022-09-29T02:03:11.762Z,1.60
2022-09-29T02:06:01.745Z,2.83
2022-09-29T02:08:54.798Z,5.80
2022-09-29T02:11:42.830Z,2.80
2022-09-29T02:14:32.440Z,3.67
2022-09-29T02:17:26.679Z,3.60
2022-09-29T02:20:13.180Z,2.72
2022-09-29T02:22:58.594Z,4.43
2022-09-29T02:25:44.521Z,2.53
2022-09-29T02:28:30.008Z,1.98
2022-09-29T02:31:16.531Z,3.55
2022-09-29T02:34:03.967Z,1.50
2022-09-29T02:37:28.819Z,4.78
2022-09-29T02:40:43.450Z,3.33
2022-09-29T02:43:53.216Z,2.80
2022-09-29T02:46:51.291Z,8.55
2022-09-29T02:50:14.691Z,3.00
2022-09-29T02:52:59.957Z,0.73
2022-09-29T02:56:09.454Z,1.30
2022-09-29T02:59:04.165Z,13.55
2022-09-29T03:01:52.092Z,1.25
2022-09-29T03:04:37.592Z,2.30
2022-09-29T03:07:23.345Z,1.90
2022-09-29T03:10:10.471Z,5.05
2022-09-29T03:12:55.944Z,2.88
2022-09-29T03:15:41.246Z,0.57
2022-09-29T03:18:27.775Z,0.60
2022-09-29T03:21:13.356Z,3.67
2022-09-29T03:23:59.204Z,2.47
2022-09-29T03:26:44.512Z,2.70
2022-09-29T03:29:30.027Z,3.85
2022-09-29T03:32:15.668Z,3.50
2022-09-29T03:35:01.041Z,2.08
2022-09-29T03:37:46.486Z,2.33
2022-09-29T03:40:31.797Z,2.80
2022-09-29T03:43:16.969Z,0.80
2022-09-29T03:46:02.611Z,0.80
2022-09-29T03:48:48.054Z,7.13
2022-09-29T03:51:33.472Z,5.40
2022-09-29T03:54:18.868Z,0.55
2022-09-29T03:57:04.318Z,5.13
2022-09-29T03:59:50.292Z,3.85
2022-09-29T04:02:36.231Z,3.30
2022-09-29T04:05:22.058Z,5.47
2022-09-29T04:08:08.617Z,1.80
2022-09-29T04:10:53.894Z,1.23
2022-09-29T04:13:39.370Z,4.20
2022-09-29T04:16:24.737Z,3.55
2022-09-29T04:19:10.122Z,4.13
2022-09-29T04:21:55.474Z,1.00
2022-09-29T04:24:40.886Z,6.68
2022-09-29T04:27:26.223Z,0.40
2022-09-29T04:30:12.235Z,3.08
2022-09-29T04:32:57.801Z,0.65
2022-09-29T04:35:43.266Z,3.13
2022-09-29T04:38:28.973Z,1.48
2022-09-29T04:41:14.458Z,0.52
2022-09-29T04:43:59.837Z,2.30
2022-09-29T04:46:45.280Z,1.60
2022-09-29T04:49:31.165Z,8.55
2022-09-29T04:52:16.683Z,0.50
2022-09-29T04:55:03.307Z,3.40
2022-09-29T04:57:49.269Z,0.52
2022-09-29T05:00:35.328Z,1.20
2022-09-29T05:03:21.345Z,1.58
2022-09-29T05:06:07.077Z,0.40
2022-09-29T05:08:52.570Z,1.65
2022-09-29T05:11:38.002Z,1.45
2022-09-29T05:14:23.694Z,6.45
2022-09-29T05:17:09.170Z,0.63
2022-09-29T05:19:54.473Z,2.38
2022-09-29T05:22:39.911Z,3.45
2022-09-29T05:25:25.282Z,4.28
2022-09-29T05:28:12.264Z,3.50
2022-09-29T05:31:05.050Z,3.65
2022-09-29T05:33:51.089Z,1.15
2022-09-29T05:36:36.327Z,6.95
2022-09-29T05:39:21.712Z,2.85
2022-09-29T05:42:11.382Z,0.65
2022-09-29T05:44:56.564Z,0.77
2022-09-29T05:47:43.489Z,1.35
2022-09-29T05:50:29.077Z,4.50
2022-09-29T05:53:14.665Z,2.47
2022-09-29T05:56:05.109Z,0.70
2022-09-29T05:58:50.722Z,0.63
2022-09-29T06:01:36.581Z,1.23
2022-09-29T06:04:21.960Z,1.17
2022-09-29T06:07:07.308Z,0.88
2022-09-29T06:09:52.963Z,4.38
2022-09-29T06:12:38.637Z,1.98
2022-09-29T06:15:24.935Z,1.23
2022-09-29T06:18:10.315Z,4.68
2022-09-29T06:21:08.892Z,3.35
2022-09-29T06:23:55.606Z,2.70
2022-09-29T06:26:41.283Z,2.55
2022-09-29T06:29:26.677Z,2.85
2022-09-29T06:32:12.098Z,9.40
2022-09-29T06:35:16.248Z,2.58
2022-09-29T06:38:02.782Z,1.65
2022-09-29T06:40:48.259Z,3.17
2022-09-29T06:43:34.339Z,2.85
2022-09-29T06:46:20.170Z,2.67
2022-09-29T06:49:05.859Z,1.77
2022-09-29T06:51:51.863Z,3.53
2022-09-29T06:54:37.032Z,2.15
2022-09-29T06:57:22.513Z,7.57
2022-09-29T07:00:08.935Z,13.65
2022-09-29T07:02:55.002Z,4.03
2022-09-29T07:05:40.695Z,2.55
2022-09-29T07:08:26.794Z,8.02
2022-09-29T07:11:12.313Z,1.27
2022-09-29T07:13:57.542Z,2.25
2022-09-29T07:16:43.656Z,3.97
2022-09-29T07:19:29.373Z,3.50
2022-09-29T07:22:14.930Z,1.77
2022-09-29T07:25:00.593Z,5.90
2022-09-29T07:27:47.166Z,2.60
2022-09-29T07:30:39.887Z,8.23
2022-09-29T07:33:36.768Z,9.25
2022-09-29T07:36:23.536Z,7.50
2022-09-29T07:39:09.084Z,2.90
2022-09-29T07:41:55.303Z,2.47
2022-09-29T07:44:40.940Z,2.05
2022-09-29T07:47:26.279Z,1.77
2022-09-29T07:50:12.279Z,2.53
2022-09-29T07:52:58.046Z,9.38
2022-09-29T07:55:43.755Z,5.72
2022-09-29T07:58:30.173Z,4.15
2022-09-29T08:01:16.538Z,7.35
2022-09-29T08:04:02.591Z,0.95
2022-09-29T08:06:48.264Z,2.67
2022-09-29T08:09:40.904Z,4.60
2022-09-29T08:12:39.276Z,4.65
2022-09-29T08:15:26.207Z,1.02
2022-09-29T08:18:11.765Z,7.47
2022-09-29T08:21:00.024Z,2.05
2022-09-29T08:23:48.482Z,4.57
2022-09-29T08:26:42.399Z,5.15
2022-09-29T08:29:40.061Z,1.55
2022-09-29T08:32:29.240Z,6.30
2022-09-29T08:35:14.847Z,3.15
2022-09-29T08:38:00.408Z,1.83
2022-09-29T08:40:46.018Z,2.72
2022-09-29T08:43:40.829Z,4.65
2022-09-29T08:46:44.445Z,2.58
2022-09-29T08:49:39.927Z,2.70
2022-09-29T08:52:49.631Z,2.20
2022-09-29T08:56:17.044Z,3.20
2022-09-29T08:59:02.666Z,1.83
2022-09-29T09:01:57.251Z,2.58
2022-09-29T09:04:58.033Z,2.20
2022-09-29T09:08:03.301Z,10.18
2022-09-29T09:11:04.846Z,5.03
2022-09-29T09:14:13.406Z,2.03
2022-09-29T09:17:22.885Z,6.18
2022-09-29T09:20:41.832Z,3.05
2022-09-29T09:23:51.233Z,5.15
2022-09-29T09:26:46.228Z,3.05
2022-09-29T09:29:39.936Z,9.63
2022-09-29T09:32:30.652Z,4.95
2022-09-29T09:35:23.950Z,3.95
2022-09-29T09:38:18.986Z,1.80
2022-09-29T09:41:04.644Z,4.55
2022-09-29T09:43:57.040Z,3.28
2022-09-29T09:47:23.330Z,1.33
2022-09-29T09:50:20.550Z,4.88
2022-09-29T09:53:17.942Z,6.57
2022-09-29T09:56:23.558Z,3.75
2022-09-29T09:59:12.412Z,13.68
2022-09-29T10:01:58.854Z,17.33
2022-09-29T10:04:44.775Z,6.13
2022-09-29T10:07:30.785Z,3.72
2022-09-29T10:10:25.165Z,4.70
2022-09-29T10:13:14.091Z,3.83
2022-09-29T10:16:25.829Z,2.97
2022-09-29T10:19:11.507Z,4.05
2022-09-29T10:22:13.103Z,4.00
2022-09-29T10:25:14.158Z,5.97
2022-09-29T10:27:59.433Z,4.95
2022-09-29T10:30:46.108Z,6.53
2022-09-29T10:33:31.623Z,3.85
2022-09-29T10:36:20.396Z,3.65
2022-09-29T10:39:05.759Z,2.20
2022-09-29T10:41:54.680Z,3.22
2022-09-29T10:44:40.105Z,1.55
2022-09-29T10:47:25.478Z,2.58
2022-09-29T10:50:23.406Z,6.88
2022-09-29T10:53:39.787Z,3.03
2022-09-29T10:56:29.761Z,4.35
2022-09-29T10:59:17.488Z,3.83
2022-09-29T11:02:03.070Z,5.78
2022-09-29T11:04:49.449Z,3.85
2022-09-29T11:07:45.184Z,7.45
2022-09-29T11:10:39.025Z,4.22
2022-09-29T11:13:24.826Z,6.40
2022-09-29T11:16:31.545Z,1.73
2022-09-29T11:19:17.246Z,3.90
2022-09-29T11:22:08.989Z,3.10
2022-09-29T11:25:12.949Z,1.60
2022-09-29T11:28:10.472Z,4.45
2022-09-29T11:31:09.540Z,9.55
2022-09-29T11:34:17.414Z,4.07
2022-09-29T11:37:21.483Z,7.63
2022-09-29T11:40:59.277Z,3.38
2022-09-29T11:43:55.035Z,4.72
2022-09-29T11:47:12.469Z,5.53
2022-09-29T11:50:20.184Z,7.32
2022-09-29T11:53:27.658Z,4.78
2022-09-29T11:56:23.017Z,6.75
2022-09-29T11:59:23.853Z,1.60
2022-09-29T12:02:29.257Z,3.80
2022-09-29T12:05:33.653Z,7.63
2022-09-29T12:08:25.022Z,2.38
2022-09-29T12:12:22.679Z,3.83
2022-09-29T12:15:21.602Z,4.07
2022-09-29T12:18:16.860Z,4.43
2022-09-29T12:21:04.218Z,3.47
2022-09-29T12:23:49.723Z,3.25
2022-09-29T12:26:35.602Z,4.00
2022-09-29T12:29:51.627Z,7.70
2022-09-29T12:32:45.013Z,3.85
2022-09-29T12:35:50.661Z,2.63
2022-09-29T12:38:42.493Z,7.78
2022-09-29T12:41:35.941Z,5.85
2022-09-29T12:44:38.647Z,5.05
2022-09-29T12:47:47.529Z,6.07
2022-09-29T12:50:41.530Z,4.38
2022-09-29T12:53:58.315Z,3.17
2022-09-29T12:57:02.356Z,6.13
2022-09-29T13:00:12.819Z,3.08
2022-09-29T13:03:16.373Z,7.10
2022-09-29T13:06:04.971Z,5.40
2022-09-29T13:09:25.899Z,3.80
2022-09-29T13:12:32.838Z,4.35
2022-09-29T13:15:27.925Z,4.57
2022-09-29T13:19:20.320Z,5.53
2022-09-29T13:22:12.357Z,3.40
2022-09-29T13:25:28.454Z,2.08
2022-09-29T13:28:31.614Z,2.47
2022-09-29T13:31:22.616Z,4.90
2022-09-29T13:34:22.532Z,4.25
2022-09-29T13:37:16.880Z,4.97
2022-09-29T13:40:11.449Z,5.30
2022-09-29T13:42:59.479Z,6.75
2022-09-29T13:45:45.812Z,5.43
2022-09-29T13:48:31.176Z,5.80
2022-09-29T13:51:29.626Z,5.30
2022-09-29T13:54:41.822Z,5.32
2022-09-29T14:00:20.077Z,7.95
2022-09-29T14:03:22.262Z,4.75
2022-09-29T14:06:40.862Z,4.93
2022-09-29T14:09:33.598Z,8.50
2022-09-29T14:12:24.670Z,3.17
2022-09-29T14:15:17.806Z,6.22
2022-09-29T14:18:13.571Z,2.95
2022-09-29T14:21:04.709Z,2.65
2022-09-29T14:23:52.652Z,4.25
2022-09-29T14:26:47.062Z,7.47
2022-09-29T14:29:35.275Z,4.18
2022-09-29T14:32:26.839Z,4.72
2022-09-29T14:35:17.790Z,3.97
2022-09-29T14:38:22.299Z,5.15
2022-09-29T14:41:07.645Z,6.25
2022-09-29T14:44:01.338Z,9.10
2022-09-29T14:51:16.557Z,7.55
2022-09-29T14:54:19.097Z,7.25
2022-09-29T14:57:35.437Z,2.35
2022-09-29T15:00:24.913Z,6.68
2022-09-29T15:03:27.211Z,3.22
2022-09-29T15:06:16.352Z,9.73
2022-09-29T15:09:23.341Z,11.93
2022-09-29T15:12:20.375Z,5.57
2022-09-29T15:15:06.449Z,2.75
2022-09-29T15:18:01.389Z,6.68
2022-09-29T15:21:22.574Z,6.10
2022-09-29T15:24:32.315Z,9.88
2022-09-29T15:27:18.626Z,3.80
2022-09-29T15:30:04.343Z,3.78
2022-09-29T15:32:52.051Z,7.30
2022-09-29T15:35:44.592Z,7.18
2022-09-29T15:38:38.318Z,7.32
2022-09-29T15:41:28.945Z,9.15
2022-09-29T15:44:20.843Z,6.05
2022-09-29T15:47:06.520Z,4.43
2022-09-29T15:49:53.568Z,6.97
2022-09-29T15:52:38.905Z,4.75
2022-09-29T15:55:25.761Z,5.97
2022-09-29T15:58:45.308Z,3.95
2022-09-29T16:01:30.699Z,6.60
2022-09-29T16:04:17.549Z,4.82
2022-09-29T16:07:03.929Z,6.63
2022-09-29T16:09:51.273Z,4.43
2022-09-29T16:12:46.880Z,2.70
2022-09-29T16:15:36.915Z,4.15
2022-09-29T16:18:31.203Z,4.55
2022-09-29T16:21:23.272Z,4.57
2022-09-29T16:24:15.497Z,4.78
2022-09-29T16:27:01.842Z,10.27
2022-09-29T16:30:17.657Z,9.40
2022-09-29T16:33:14.644Z,4.35
2022-09-29T16:36:18.013Z,7.65
2022-09-29T16:39:07.475Z,5.40
2022-09-29T16:41:54.993Z,3.35
2022-09-29T16:44:44.369Z,5.40
2022-09-29T16:47:33.028Z,5.20
2022-09-29T16:50:19.985Z,5.78
2022-09-29T16:53:05.453Z,12.48
2022-09-29T16:56:20.540Z,7.15
2022-09-29T16:59:16.312Z,6.30
2022-09-29T17:02:06.029Z,9.35
2022-09-29T17:04:52.539Z,10.07
2022-09-29T17:07:44.432Z,14.05
2022-09-29T17:13:17.196Z,8.00
2022-09-29T17:16:05.960Z,8.02
2022-09-29T17:18:53.598Z,9.52
2022-09-29T17:21:39.063Z,12.70
2022-09-29T17:24:24.626Z,9.35
2022-09-29T17:27:28.682Z,8.63
2022-09-29T17:30:18.815Z,8.02
2022-09-29T17:33:04.552Z,10.52
2022-09-29T17:35:55.859Z,17.88
2022-09-29T17:38:42.040Z,6.82
2022-09-29T17:41:28.236Z,7.80
2022-09-29T17:44:13.652Z,10.02
2022-09-29T17:47:11.290Z,9.93
2022-09-29T17:50:30.344Z,7.30
2022-09-29T17:53:16.740Z,7.32
2022-09-29T17:56:03.384Z,6.00
2022-09-29T17:58:49.826Z,7.65
2022-09-29T18:01:35.666Z,5.28
2022-09-29T18:04:21.346Z,11.45
2022-09-29T18:07:06.546Z,5.47
2022-09-29T18:09:52.071Z,8.75
2022-09-29T18:12:37.536Z,16.58
2022-09-29T18:15:23.912Z,12.48
2022-09-29T18:18:15.571Z,9.30
2022-09-29T18:21:01.461Z,9.38
2022-09-29T18:23:47.640Z,7.38
2022-09-29T18:26:33.170Z,13.52
2022-09-29T18:29:19.404Z,17.95
2022-09-29T18:32:04.981Z,32.13
2022-09-29T18:34:50.719Z,33.00
2022-09-29T18:37:36.281Z,26.77
2022-09-29T18:40:22.355Z,34.28
2022-09-29T18:43:12.467Z,25.30
2022-09-29T18:45:59.058Z,32.00
2022-09-29T18:48:45.510Z,27.75
2022-09-29T18:51:30.896Z,21.20
2022-09-29T18:54:17.907Z,25.05
2022-09-29T18:57:03.258Z,18.75
2022-09-29T18:59:50.433Z,15.10
2022-09-29T19:02:35.931Z,18.25
2022-09-29T19:05:29.165Z,15.85
2022-09-29T19:08:16.236Z,16.65
2022-09-29T19:11:04.715Z,15.60
2022-09-29T19:13:54.325Z,14.38
2022-09-29T19:16:39.700Z,23.17
2022-09-29T19:19:25.165Z,32.03
2022-09-29T19:22:12.800Z,28.83
2022-09-29T19:24:58.050Z,20.73
2022-09-29T19:27:44.599Z,17.05
2022-09-29T19:30:32.528Z,19.90
2022-09-29T19:33:21.643Z,15.05
2022-09-29T19:36:13.000Z,18.48
2022-09-29T19:38:58.606Z,13.77
2022-09-29T19:41:44.473Z,16.40
2022-09-29T19:44:32.027Z,19.13
2022-09-29T19:47:17.845Z,16.77
2022-09-29T19:50:26.924Z,22.60
2022-09-29T19:53:12.589Z,22.45
2022-09-29T19:55:58.470Z,15.68
2022-09-29T19:58:44.177Z,21.83
2022-09-29T20:01:29.639Z,31.20
2022-09-29T20:04:15.880Z,23.25
2022-09-29T20:07:02.834Z,24.52
2022-09-29T20:09:49.130Z,21.45
2022-09-29T20:12:35.294Z,23.27
2022-09-29T20:15:21.745Z,26.25
2022-09-29T20:18:07.364Z,26.33
2022-09-29T20:20:52.765Z,20.80
2022-09-29T20:23:41.660Z,21.17
2022-09-29T20:26:28.236Z,22.00
2022-09-29T20:29:15.798Z,24.00
2022-09-29T20:32:01.661Z,24.13
2022-09-29T20:34:47.424Z,26.95
2022-09-29T20:37:33.308Z,24.02
2022-09-29T20:40:19.043Z,21.73
2022-09-29T20:43:04.635Z,19.42
2022-09-29T20:45:57.540Z,26.08
2022-09-29T20:48:44.249Z,22.65
2022-09-29T20:51:30.046Z,21.60
2022-09-29T20:54:15.403Z,24.33
2022-09-29T20:57:00.692Z,20.20
2022-09-29T20:59:45.961Z,25.55
2022-09-29T21:02:31.426Z,25.20
2022-09-29T21:05:17.643Z,27.75
2022-09-29T21:08:03.111Z,17.50
2022-09-29T21:10:49.407Z,19.33
2022-09-29T21:13:35.779Z,27.27
2022-09-29T21:16:21.280Z,25.63
2022-09-29T21:19:06.764Z,26.35
2022-09-29T21:21:53.388Z,31.92
2022-09-29T21:24:39.556Z,27.67
2022-09-29T21:27:25.329Z,24.77
2022-09-29T21:30:10.725Z,25.35
2022-09-29T21:32:56.389Z,28.75
2022-09-29T21:35:41.808Z,33.38
2022-09-29T21:38:30.603Z,21.38
2022-09-29T21:41:21.056Z,25.98
2022-09-29T21:44:13.006Z,22.23
2022-09-29T21:46:58.794Z,29.00
2022-09-29T21:49:44.082Z,26.25
2022-09-29T21:52:29.647Z,24.25
2022-09-29T21:55:16.057Z,32.50
2022-09-29T21:58:01.562Z,32.28
2022-09-29T22:00:47.498Z,31.23
2022-09-29T22:03:36.013Z,28.50
2022-09-29T22:06:33.851Z,28.55
2022-09-29T22:09:21.239Z,30.23
2022-09-29T22:12:06.796Z,27.80
2022-09-29T22:14:52.508Z,27.70
2022-09-29T22:17:38.147Z,30.23
2022-09-29T22:20:23.401Z,26.75
2022-09-29T22:23:08.922Z,32.55
2022-09-29T22:25:54.988Z,27.35
2022-09-29T22:28:41.205Z,31.33
2022-09-29T22:31:28.290Z,21.67
2022-09-29T22:34:13.840Z,27.00
2022-09-29T22:36:59.542Z,26.00
2022-09-29T22:39:45.101Z,22.70
2022-09-29T22:42:30.469Z,21.90
2022-09-29T22:45:16.035Z,25.35
2022-09-29T22:48:01.834Z,23.83
2022-09-29T22:50:49.103Z,22.75
2022-09-29T22:53:34.715Z,18.55
2022-09-29T22:56:28.328Z,15.63
2022-09-29T22:59:15.244Z,16.80
2022-09-29T23:02:01.778Z,21.42
2022-09-29T23:04:48.516Z,20.55
2022-09-29T23:07:33.866Z,19.75
2022-09-29T23:10:19.397Z,16.13
2022-09-29T23:13:06.187Z,13.98
2022-09-29T23:15:51.828Z,16.77
2022-09-29T23:18:43.537Z,14.80
2022-09-29T23:21:28.864Z,11.88
2022-09-29T23:24:14.113Z,12.68
2022-09-29T23:27:00.612Z,12.10
2022-09-29T23:29:46.725Z,13.25
2022-09-29T23:32:32.224Z,11.38
2022-09-29T23:35:17.610Z,12.63
2022-09-29T23:38:21.633Z,10.07
2022-09-29T23:41:08.191Z,13.90
2022-09-29T23:43:55.715Z,8.75
2022-09-29T23:46:41.996Z,12.13
2022-09-29T23:49:29.001Z,12.60
2022-09-29T23:52:14.875Z,9.95
2022-09-29T23:55:00.501Z,15.20
2022-09-29T23:57:45.896Z,11.32
